createdAt,value
2019-01-03T00:00:27.722Z,0.30
2019-01-03T00:03:12.226Z,0.30
2019-01-03T00:05:51.861Z,0.40
2019-01-03T00:08:37.915Z,0.40
2019-01-03T00:11:18.165Z,0.50
2019-01-03T00:13:54.553Z,0.50
2019-01-03T00:16:41.730Z,0.50
2019-01-03T00:19:15.647Z,0.60
2019-01-03T00:21:49.234Z,0.60
2019-01-03T00:24:36.807Z,0.60
2019-01-03T00:27:22.994Z,0.70
2019-01-03T00:29:53.914Z,0.70
2019-01-03T00:32:28.050Z,0.70
2019-01-03T00:35:15.687Z,0.70
2019-01-03T00:37:49.595Z,0.70
2019-01-03T00:40:24.213Z,0.80
2019-01-03T00:43:01.193Z,0.80
2019-01-03T00:45:35.031Z,0.90
2019-01-03T00:48:05.962Z,0.90
2019-01-03T00:50:46.202Z,0.90
2019-01-03T00:53:22.721Z,1.00
2019-01-03T00:56:08.961Z,0.90
2019-01-03T00:58:39.891Z,1.00
2019-01-03T01:01:11.162Z,0.90
2019-01-03T01:03:44.828Z,1.00
2019-01-03T01:06:19.175Z,1.00
2019-01-03T01:08:50.098Z,1.00
2019-01-03T01:11:37.243Z,1.00
2019-01-03T01:14:20.338Z,1.10
2019-01-03T01:16:52.067Z,1.10
2019-01-03T01:19:35.238Z,1.20
2019-01-03T01:22:08.821Z,1.20
2019-01-03T01:24:42.459Z,1.20
2019-01-03T01:27:31.750Z,1.30
2019-01-03T01:30:14.502Z,1.30
2019-01-03T01:32:51.339Z,1.40
2019-01-03T01:35:22.500Z,1.50
2019-01-03T01:37:59.430Z,1.40
2019-01-03T01:40:48.826Z,1.40
2019-01-03T01:43:25.427Z,1.40
2019-01-03T01:46:05.888Z,1.50
2019-01-03T01:48:36.974Z,1.50
2019-01-03T01:51:08.227Z,1.50
2019-01-03T01:53:39.138Z,1.50
2019-01-03T01:56:26.242Z,1.60
2019-01-03T01:58:57.168Z,1.60
2019-01-03T02:01:31.326Z,1.60
2019-01-03T02:04:08.230Z,1.60
2019-01-03T02:06:39.480Z,1.70
2019-01-03T02:09:26.357Z,1.70
2019-01-03T02:12:00.617Z,1.70
2019-01-03T02:14:37.544Z,1.70
2019-01-03T02:17:11.232Z,1.70
2019-01-03T02:19:45.314Z,1.70
2019-01-03T02:22:32.946Z,1.60
2019-01-03T02:25:09.530Z,1.60
2019-01-03T02:27:49.400Z,1.60
2019-01-03T02:30:23.284Z,1.60
2019-01-03T02:32:56.849Z,1.60
2019-01-03T02:35:30.771Z,1.70
2019-01-03T02:38:16.965Z,1.70
2019-01-03T02:40:50.749Z,1.80
2019-01-03T02:43:27.522Z,1.80
2019-01-03T02:46:07.909Z,1.70
2019-01-03T02:48:42.229Z,1.70
2019-01-03T02:51:16.216Z,1.60
2019-01-03T02:53:53.106Z,1.60
2019-01-03T02:56:40.458Z,1.70
2019-01-03T02:59:23.874Z,1.70
2019-01-03T03:01:54.797Z,1.70
2019-01-03T03:04:38.257Z,1.80
2019-01-03T03:07:09.185Z,1.90
2019-01-03T03:09:46.088Z,1.90
2019-01-03T03:12:19.893Z,1.90
2019-01-03T03:14:51.108Z,1.90
2019-01-03T03:17:28.203Z,1.90
2019-01-03T03:20:01.802Z,1.90
2019-01-03T03:22:32.801Z,1.90
2019-01-03T03:25:06.656Z,1.90
2019-01-03T03:27:37.897Z,1.90
2019-01-03T03:30:09.176Z,1.90
2019-01-03T03:32:42.769Z,1.90
2019-01-03T03:35:28.721Z,1.90
2019-01-03T03:38:02.632Z,1.90
2019-01-03T03:40:43.001Z,1.80
2019-01-03T03:43:23.173Z,1.90
2019-01-03T03:45:56.992Z,1.90
2019-01-03T03:48:42.949Z,2.00
2019-01-03T03:51:22.830Z,2.00
2019-01-03T03:53:56.424Z,2.10
2019-01-03T03:56:27.374Z,2.10
2019-01-03T03:59:07.273Z,2.10
2019-01-03T04:01:50.499Z,2.10
2019-01-03T04:04:37.745Z,2.10
2019-01-03T04:07:08.976Z,2.10
2019-01-03T04:09:56.435Z,2.00
2019-01-03T04:12:44.116Z,2.00
2019-01-03T04:15:31.672Z,1.90
2019-01-03T04:18:11.627Z,1.90
2019-01-03T04:20:48.604Z,2.00
2019-01-03T04:23:35.987Z,2.00
2019-01-03T04:26:09.901Z,1.90
2019-01-03T04:28:57.318Z,1.90
2019-01-03T04:31:28.502Z,2.00
2019-01-03T04:34:08.395Z,1.90
2019-01-03T04:36:55.702Z,2.00
2019-01-03T04:39:26.922Z,2.00
2019-01-03T04:41:57.856Z,2.00
2019-01-03T04:44:31.624Z,2.00
2019-01-03T04:47:14.864Z,2.10
2019-01-03T04:49:48.711Z,2.10
2019-01-03T04:52:34.895Z,2.10
2019-01-03T04:55:11.931Z,2.20
2019-01-03T04:57:51.802Z,2.10
2019-01-03T05:00:22.970Z,2.10
2019-01-03T05:03:10.216Z,2.10
2019-01-03T05:05:49.887Z,2.10
2019-01-03T05:08:21.088Z,2.20
2019-01-03T05:10:57.750Z,2.20
2019-01-03T05:13:34.380Z,2.10
2019-01-03T05:16:05.297Z,2.20
2019-01-03T05:18:42.311Z,2.20
2019-01-03T05:21:13.235Z,2.20
2019-01-03T05:23:56.753Z,2.20
2019-01-03T05:26:25.637Z,2.20
2019-01-03T05:29:09.150Z,2.10
2019-01-03T05:31:40.398Z,2.10
2019-01-03T05:34:28.009Z,2.10
2019-01-03T05:37:10.907Z,2.10
2019-01-03T05:39:58.603Z,2.00
2019-01-03T05:42:46.019Z,2.10
2019-01-03T05:45:22.913Z,2.00
2019-01-03T05:48:09.180Z,2.10
2019-01-03T05:50:51.996Z,2.10
2019-01-03T05:53:39.178Z,2.10
2019-01-03T05:56:26.687Z,2.10
2019-01-03T05:58:57.623Z,2.20
2019-01-03T06:01:34.282Z,2.30
2019-01-03T06:04:05.221Z,2.30
2019-01-03T06:06:48.075Z,2.30
2019-01-03T06:09:34.314Z,2.40
2019-01-03T06:12:05.563Z,2.30
2019-01-03T06:14:45.913Z,2.40
2019-01-03T06:17:17.166Z,2.30
2019-01-03T06:20:03.404Z,2.40
2019-01-03T06:22:40.450Z,2.30
2019-01-03T06:25:23.323Z,2.30
2019-01-03T06:28:02.820Z,2.30
2019-01-03T06:30:37.533Z,2.30
2019-01-03T06:33:24.747Z,2.40
2019-01-03T06:36:08.083Z,2.30
2019-01-03T06:38:50.975Z,2.30
2019-01-03T06:41:27.626Z,2.30
2019-01-03T06:44:07.832Z,2.40
2019-01-03T06:46:55.098Z,2.40
2019-01-03T06:49:44.037Z,2.40
2019-01-03T06:52:17.919Z,2.50
2019-01-03T06:55:05.254Z,2.40
2019-01-03T06:57:36.182Z,2.40
2019-01-03T07:00:10.923Z,2.40
2019-01-03T07:02:58.552Z,2.40
2019-01-03T07:05:48.124Z,2.40
2019-01-03T07:08:22.128Z,2.50
2019-01-03T07:11:11.081Z,2.40
2019-01-03T07:13:50.963Z,2.50
2019-01-03T07:16:37.134Z,2.60
2019-01-03T07:19:24.834Z,2.50
2019-01-03T07:22:01.508Z,2.50
2019-01-03T07:24:44.357Z,2.50
2019-01-03T07:27:15.283Z,2.60
2019-01-03T07:29:46.215Z,2.60
2019-01-03T07:32:33.346Z,2.60
2019-01-03T07:35:20.886Z,2.60
2019-01-03T07:38:07.394Z,2.60
2019-01-03T07:40:55.866Z,2.60
2019-01-03T07:43:44.974Z,2.70
2019-01-03T07:46:32.843Z,2.70
2019-01-03T07:49:20.072Z,2.70
2019-01-03T07:52:00.227Z,2.80
2019-01-03T07:54:47.857Z,2.80
2019-01-03T07:57:18.776Z,2.80
2019-01-03T07:59:52.387Z,2.80
2019-01-03T08:02:40.128Z,2.80
2019-01-03T08:05:17.204Z,2.80
2019-01-03T08:08:06.586Z,2.80
2019-01-03T08:10:40.069Z,2.80
2019-01-03T08:13:19.525Z,2.80
2019-01-03T08:16:06.770Z,2.80
2019-01-03T08:18:44.030Z,2.80
2019-01-03T08:21:26.938Z,2.80
2019-01-03T08:24:10.127Z,2.80
2019-01-03T08:26:59.443Z,2.80
2019-01-03T08:29:33.324Z,2.80
2019-01-03T08:32:07.675Z,2.90
2019-01-03T08:34:54.862Z,2.90
2019-01-03T08:37:25.794Z,2.90
2019-01-03T08:39:59.372Z,3.00
2019-01-03T08:42:39.461Z,3.00
2019-01-03T08:45:27.109Z,3.00
2019-01-03T08:48:10.344Z,3.00
2019-01-03T08:50:57.567Z,3.10
2019-01-03T08:53:44.870Z,3.40
2019-01-03T08:56:21.981Z,5.70
2019-01-03T08:59:02.221Z,5.30
2019-01-03T09:01:42.173Z,4.80
2019-01-03T09:04:19.158Z,4.40
2019-01-03T09:07:06.161Z,4.20
2019-01-03T09:09:53.707Z,4.10
2019-01-03T09:12:27.723Z,3.80
2019-01-03T09:14:58.641Z,3.70
2019-01-03T09:17:29.585Z,3.70
2019-01-03T09:20:18.970Z,3.60
2019-01-03T09:23:06.534Z,3.60
2019-01-03T09:25:53.913Z,3.60
2019-01-03T09:28:37.065Z,3.60
2019-01-03T09:31:14.143Z,3.50
2019-01-03T09:33:45.076Z,3.50
2019-01-03T09:36:16.307Z,3.40
2019-01-03T09:38:47.292Z,3.30
2019-01-03T09:41:18.243Z,3.30
2019-01-03T09:43:54.867Z,3.40
2019-01-03T09:46:24.142Z,3.30
2019-01-03T09:48:54.200Z,3.20
2019-01-03T09:51:23.475Z,3.20
2019-01-03T09:53:52.759Z,3.10
2019-01-03T09:56:22.295Z,3.10
2019-01-03T09:58:51.587Z,3.10
2019-01-03T10:01:21.198Z,3.10
2019-01-03T10:03:50.494Z,3.30
2019-01-03T10:06:19.762Z,3.30
2019-01-03T10:08:49.068Z,3.30
2019-01-03T10:11:18.350Z,3.50
2019-01-03T10:13:47.635Z,3.50
2019-01-03T10:16:16.923Z,3.50
2019-01-03T10:18:47.535Z,3.50
2019-01-03T10:21:16.814Z,3.60
2019-01-03T10:23:46.452Z,3.60
2019-01-03T10:26:16.050Z,3.70
2019-01-03T10:28:45.338Z,3.80
2019-01-03T10:31:14.625Z,3.90
2019-01-03T10:33:43.906Z,3.80
2019-01-03T10:36:13.367Z,3.80
2019-01-03T10:38:42.646Z,3.80
2019-01-03T10:41:12.179Z,3.80
2019-01-03T10:43:41.460Z,3.80
2019-01-03T10:46:11.077Z,3.80
2019-01-03T10:48:40.345Z,3.80
2019-01-03T10:51:09.640Z,3.80
2019-01-03T10:53:38.923Z,3.80
2019-01-03T10:56:08.485Z,3.90
2019-01-03T10:58:37.767Z,3.90
2019-01-03T11:01:07.491Z,4.00
2019-01-03T11:03:37.093Z,4.00
2019-01-03T11:06:06.404Z,4.00
2019-01-03T11:08:35.691Z,4.20
2019-01-03T11:11:05.314Z,4.30
2019-01-03T11:13:34.577Z,4.20
2019-01-03T11:16:03.879Z,4.20
2019-01-03T11:18:33.419Z,4.20
2019-01-03T11:21:03.027Z,4.30
2019-01-03T11:23:32.551Z,4.30
2019-01-03T11:26:02.143Z,4.30
2019-01-03T11:28:31.442Z,4.30
2019-01-03T11:31:02.104Z,4.40
2019-01-03T11:33:31.534Z,4.40
2019-01-03T11:36:00.811Z,4.40
2019-01-03T11:38:30.107Z,4.50
2019-01-03T11:40:59.391Z,4.40
2019-01-03T11:43:28.680Z,4.50
2019-01-03T11:45:58.298Z,4.50
2019-01-03T11:48:27.863Z,4.60
2019-01-03T11:50:57.399Z,4.60
2019-01-03T11:53:26.687Z,4.70
2019-01-03T11:55:55.971Z,4.70
2019-01-03T11:58:25.260Z,4.80
2019-01-03T12:00:54.542Z,4.70
2019-01-03T12:03:23.901Z,4.70
2019-01-03T12:05:53.182Z,5.10
2019-01-03T12:08:22.827Z,5.00
2019-01-03T12:10:52.419Z,4.80
2019-01-03T12:13:22.023Z,4.70
2019-01-03T12:15:51.310Z,4.80
2019-01-03T12:18:20.589Z,5.40
2019-01-03T12:20:50.140Z,5.50
2019-01-03T12:23:19.435Z,5.30
2019-01-03T12:25:49.045Z,5.10
2019-01-03T12:28:18.338Z,5.00
2019-01-03T12:30:47.622Z,4.90
2019-01-03T12:33:16.935Z,4.80
2019-01-03T12:35:46.254Z,4.80
2019-01-03T12:38:17.000Z,4.70
2019-01-03T12:40:46.280Z,4.70
2019-01-03T12:43:16.630Z,4.80
2019-01-03T12:45:45.976Z,4.70
2019-01-03T12:48:15.259Z,4.80
2019-01-03T12:50:44.812Z,4.80
2019-01-03T12:53:14.225Z,4.80
2019-01-03T12:55:43.519Z,4.70
2019-01-03T12:58:12.808Z,4.60
2019-01-03T13:00:42.436Z,4.60
2019-01-03T13:03:11.710Z,4.60
2019-01-03T13:05:40.996Z,4.60
2019-01-03T13:08:10.273Z,4.60
2019-01-03T13:10:40.539Z,4.60
2019-01-03T13:13:09.817Z,4.80
2019-01-03T13:15:39.363Z,4.90
2019-01-03T13:18:08.815Z,4.60
2019-01-03T13:20:38.120Z,4.50
2019-01-03T13:23:07.390Z,4.40
2019-01-03T13:25:36.694Z,4.40
2019-01-03T13:28:05.966Z,4.40
2019-01-03T13:30:35.259Z,4.40
2019-01-03T13:33:04.538Z,4.40
2019-01-03T13:35:33.814Z,4.40
2019-01-03T13:38:03.094Z,4.40
2019-01-03T13:40:32.696Z,4.30
2019-01-03T13:43:01.984Z,4.40
2019-01-03T13:45:31.583Z,4.40
2019-01-03T13:48:00.875Z,4.50
2019-01-03T13:50:30.153Z,4.50
2019-01-03T13:52:59.787Z,4.50
2019-01-03T13:55:29.398Z,4.40
2019-01-03T13:57:58.682Z,4.30
2019-01-03T14:00:28.200Z,4.40
2019-01-03T14:02:57.899Z,4.50
2019-01-03T14:05:27.627Z,4.60
2019-01-03T14:07:56.909Z,4.60
2019-01-03T14:10:26.196Z,4.50
2019-01-03T14:12:55.735Z,4.60
2019-01-03T14:15:25.343Z,4.60
2019-01-03T14:17:54.632Z,4.60
2019-01-03T14:20:23.915Z,4.60
2019-01-03T14:22:53.453Z,4.70
2019-01-03T14:25:22.732Z,4.70
2019-01-03T14:27:53.383Z,4.80
2019-01-03T14:30:22.662Z,4.80
2019-01-03T14:32:52.291Z,4.80
2019-01-03T14:35:21.583Z,4.80
2019-01-03T14:37:50.865Z,4.80
2019-01-03T14:40:20.393Z,4.80
2019-01-03T14:42:49.687Z,4.80
2019-01-03T14:45:18.965Z,4.70
2019-01-03T14:47:48.507Z,4.70
2019-01-03T14:50:17.789Z,4.70
2019-01-03T14:52:47.062Z,4.70
2019-01-03T14:55:17.322Z,4.60
2019-01-03T14:57:46.601Z,4.50
2019-01-03T15:00:16.448Z,4.50
2019-01-03T15:02:46.061Z,4.50
2019-01-03T15:05:15.658Z,4.50
2019-01-03T15:07:45.267Z,4.50
2019-01-03T15:10:14.875Z,4.60
2019-01-03T15:12:44.160Z,4.60
2019-01-03T15:15:13.447Z,4.60
2019-01-03T15:17:42.719Z,4.70
2019-01-03T15:20:13.062Z,4.70
2019-01-03T15:22:42.338Z,4.70
2019-01-03T15:25:11.618Z,4.90
2019-01-03T15:27:40.899Z,5.40
2019-01-03T15:30:10.924Z,5.30
2019-01-03T15:32:40.194Z,5.10
2019-01-03T15:35:09.826Z,5.10
2019-01-03T15:37:40.463Z,5.00
2019-01-03T15:40:09.783Z,4.90
2019-01-03T15:42:39.371Z,4.90
2019-01-03T15:45:09.082Z,4.80
2019-01-03T15:47:38.341Z,4.80
2019-01-03T15:50:08.591Z,4.70
2019-01-03T15:52:38.114Z,4.70
2019-01-03T15:55:07.398Z,4.60
2019-01-03T15:57:36.679Z,4.60
2019-01-03T16:00:08.892Z,4.60
2019-01-03T16:02:38.490Z,4.60
2019-01-03T16:05:08.331Z,4.60
2019-01-03T16:07:37.943Z,4.60
2019-01-03T16:10:08.153Z,4.60
2019-01-03T16:12:37.740Z,4.50
2019-01-03T16:15:07.376Z,4.60
2019-01-03T16:17:36.661Z,4.60
2019-01-03T16:20:07.392Z,4.60
2019-01-03T16:22:38.918Z,4.60
2019-01-03T16:25:08.559Z,4.60
2019-01-03T16:27:38.082Z,4.60
2019-01-03T16:30:09.703Z,4.50
2019-01-03T16:32:38.995Z,4.60
2019-01-03T16:35:08.274Z,4.60
2019-01-03T16:37:37.562Z,4.60
2019-01-03T16:40:08.778Z,4.60
2019-01-03T16:42:40.588Z,4.70
2019-01-03T16:45:11.712Z,4.60
2019-01-03T16:47:41.066Z,4.60
2019-01-03T16:50:15.075Z,4.50
2019-01-03T16:52:44.362Z,4.60
2019-01-03T16:55:13.630Z,4.60
2019-01-03T16:57:42.930Z,4.70
2019-01-03T17:00:12.683Z,4.70
2019-01-03T17:02:42.937Z,4.70
2019-01-03T17:05:12.222Z,4.70
2019-01-03T17:07:41.815Z,4.70
2019-01-03T17:10:12.983Z,4.70
2019-01-03T17:12:43.083Z,4.70
2019-01-03T17:15:12.365Z,4.70
2019-01-03T17:17:41.650Z,4.70
2019-01-03T17:20:11.163Z,4.70
2019-01-03T17:22:40.437Z,4.70
2019-01-03T17:25:11.015Z,4.70
2019-01-03T17:27:40.294Z,4.80
2019-01-03T17:30:10.723Z,4.70
2019-01-03T17:32:40.074Z,4.80
2019-01-03T17:35:10.982Z,4.60
2019-01-03T17:37:40.266Z,4.60
2019-01-03T17:40:11.390Z,4.60
2019-01-03T17:42:41.007Z,4.70
2019-01-03T17:45:11.144Z,4.70
2019-01-03T17:47:40.405Z,4.80
2019-01-03T17:50:11.614Z,4.80
2019-01-03T17:52:40.882Z,4.80
2019-01-03T17:55:10.158Z,4.80
2019-01-03T17:57:39.441Z,4.70
2019-01-03T18:00:14.566Z,4.80
2019-01-03T18:02:44.148Z,4.70
2019-01-03T18:05:13.430Z,4.70
2019-01-03T18:07:43.064Z,4.60
2019-01-03T18:10:14.100Z,4.70
2019-01-03T18:12:43.372Z,4.70
2019-01-03T18:15:12.907Z,4.60
2019-01-03T18:17:42.187Z,4.70
2019-01-03T18:20:14.007Z,4.70
2019-01-03T18:22:43.702Z,4.70
2019-01-03T18:25:13.286Z,4.80
2019-01-03T18:27:42.635Z,4.90
2019-01-03T18:30:12.706Z,4.90
2019-01-03T18:32:41.989Z,4.90
2019-01-03T18:35:11.271Z,5.00
2019-01-03T18:37:40.553Z,4.90
2019-01-03T18:40:12.566Z,4.90
2019-01-03T18:42:41.859Z,4.90
2019-01-03T18:45:14.079Z,4.90
2019-01-03T18:47:43.643Z,4.80
2019-01-03T18:50:18.760Z,4.80
2019-01-03T18:52:43.924Z,4.90
2019-01-03T18:55:13.492Z,4.80
2019-01-03T18:57:42.777Z,4.80
2019-01-03T19:00:12.585Z,4.80
2019-01-03T19:02:41.882Z,4.80
2019-01-03T19:05:11.619Z,4.80
2019-01-03T19:07:40.957Z,4.80
2019-01-03T19:10:10.851Z,4.80
2019-01-03T19:12:40.450Z,4.70
2019-01-03T19:15:10.354Z,4.60
2019-01-03T19:17:39.639Z,4.60
2019-01-03T19:20:10.298Z,4.60
2019-01-03T19:22:39.998Z,4.50
2019-01-03T19:25:12.452Z,4.60
2019-01-03T19:27:41.737Z,4.50
2019-01-03T19:30:12.528Z,4.50
2019-01-03T19:32:41.825Z,4.60
2019-01-03T19:35:12.551Z,4.60
2019-01-03T19:37:41.890Z,4.60
2019-01-03T19:40:13.540Z,4.60
2019-01-03T19:42:44.366Z,4.60
2019-01-03T19:45:14.254Z,4.60
2019-01-03T19:47:43.553Z,4.60
2019-01-03T19:50:15.931Z,4.60
2019-01-03T19:52:45.548Z,4.60
2019-01-03T19:55:14.846Z,4.60
2019-01-03T19:57:44.128Z,4.60
2019-01-03T20:00:15.544Z,4.50
2019-01-03T20:02:45.097Z,4.50
2019-01-03T20:05:14.447Z,4.50
2019-01-03T20:07:45.131Z,4.50
2019-01-03T20:10:14.728Z,4.50
2019-01-03T20:12:44.337Z,4.50
2019-01-03T20:15:14.682Z,4.40
2019-01-03T20:17:44.283Z,4.40
2019-01-03T20:20:13.889Z,4.50
2019-01-03T20:22:43.219Z,4.50
2019-01-03T20:25:12.485Z,4.50
2019-01-03T20:27:42.829Z,4.50
2019-01-03T20:30:12.191Z,4.50
2019-01-03T20:32:41.481Z,4.50
2019-01-03T20:35:10.766Z,4.40
2019-01-03T20:37:41.136Z,4.40
2019-01-03T20:40:10.480Z,4.40
2019-01-03T20:42:40.046Z,4.40
2019-01-03T20:45:12.226Z,4.40
2019-01-03T20:47:41.497Z,4.40
2019-01-03T20:50:12.626Z,4.40
2019-01-03T20:52:42.165Z,4.40
2019-01-03T20:55:11.780Z,4.30
2019-01-03T20:57:41.062Z,4.30
2019-01-03T21:00:15.211Z,4.30
2019-01-03T21:02:44.800Z,4.20
2019-01-03T21:05:14.073Z,4.20
2019-01-03T21:07:43.607Z,4.10
2019-01-03T21:10:13.217Z,4.10
2019-01-03T21:12:42.502Z,4.10
2019-01-03T21:15:14.438Z,4.10
2019-01-03T21:17:43.709Z,4.10
2019-01-03T21:20:15.053Z,4.10
2019-01-03T21:22:44.355Z,4.10
2019-01-03T21:25:13.810Z,4.00
2019-01-03T21:27:43.208Z,4.10
2019-01-03T21:30:15.397Z,4.10
2019-01-03T21:32:44.763Z,4.10
2019-01-03T21:35:14.305Z,4.00
2019-01-03T21:37:43.591Z,4.00
2019-01-03T21:40:13.626Z,4.00
2019-01-03T21:42:42.881Z,4.00
2019-01-03T21:45:12.377Z,4.00
2019-01-03T21:47:41.721Z,4.00
2019-01-03T21:50:11.538Z,4.00
2019-01-03T21:52:41.803Z,3.90
2019-01-03T21:55:11.378Z,3.90
2019-01-03T21:57:40.660Z,3.90
2019-01-03T22:00:11.726Z,3.90
2019-01-03T22:02:41.022Z,3.90
2019-01-03T22:05:10.631Z,3.90
2019-01-03T22:07:39.919Z,3.90
2019-01-03T22:10:10.179Z,3.90
2019-01-03T22:12:39.763Z,4.00
2019-01-03T22:15:09.578Z,3.90
2019-01-03T22:17:38.914Z,3.90
2019-01-03T22:20:09.361Z,4.00
2019-01-03T22:22:38.813Z,3.90
2019-01-03T22:25:08.652Z,3.90
2019-01-03T22:27:37.934Z,3.90
2019-01-03T22:30:09.912Z,3.80
2019-01-03T22:32:39.196Z,3.80
2019-01-03T22:35:08.559Z,3.80
2019-01-03T22:37:37.822Z,3.60
2019-01-03T22:40:08.558Z,3.50
2019-01-03T22:42:38.135Z,3.60
2019-01-03T22:45:08.467Z,3.70
2019-01-03T22:47:38.118Z,3.80
2019-01-03T22:50:09.544Z,3.80
2019-01-03T22:52:39.124Z,3.80
2019-01-03T22:55:08.414Z,3.70
2019-01-03T22:57:38.033Z,3.60
2019-01-03T23:00:28.454Z,3.40
2019-01-03T23:02:58.701Z,3.30
2019-01-03T23:05:27.986Z,3.20
2019-01-03T23:07:57.276Z,3.30
2019-01-03T23:10:26.558Z,3.40
2019-01-03T23:12:56.170Z,3.40
2019-01-03T23:15:25.981Z,3.50
2019-01-03T23:17:55.274Z,3.60
2019-01-03T23:20:24.916Z,3.60
2019-01-03T23:22:54.219Z,3.60
2019-01-03T23:25:23.802Z,3.60
2019-01-03T23:27:53.089Z,3.60
2019-01-03T23:30:22.382Z,3.50
2019-01-03T23:32:51.672Z,3.60
2019-01-03T23:35:20.966Z,3.60
2019-01-03T23:37:50.264Z,3.60
2019-01-03T23:40:19.564Z,3.70
2019-01-03T23:42:48.851Z,3.70
2019-01-03T23:45:20.574Z,3.70
2019-01-03T23:47:51.409Z,3.70
2019-01-03T23:50:28.761Z,3.70
2019-01-03T23:52:58.384Z,3.70
2019-01-03T23:55:29.134Z,3.80
2019-01-03T23:57:58.434Z,3.80
